createdAt,value
2019-02-21T00:02:26.909Z,11.93
2019-02-21T00:04:57.238Z,11.73
2019-02-21T00:07:46.600Z,12.27
2019-02-21T00:10:35.989Z,12.53
2019-02-21T00:13:25.355Z,12.40
2019-02-21T00:16:14.834Z,11.90
2019-02-21T00:19:04.236Z,12.23
2019-02-21T00:21:46.182Z,12.27
2019-02-21T00:24:28.910Z,13.40
2019-02-21T00:27:11.174Z,12.63
2019-02-21T00:29:52.971Z,13.47
2019-02-21T00:32:35.077Z,13.20
2019-02-21T00:35:20.368Z,13.30
2019-02-21T00:38:02.421Z,13.70
2019-02-21T00:40:44.527Z,12.90
2019-02-21T00:43:26.468Z,14.83
2019-02-21T00:46:08.457Z,14.37
2019-02-21T00:48:50.457Z,13.50
2019-02-21T00:51:32.721Z,14.27
2019-02-21T00:54:14.986Z,13.90
2019-02-21T00:56:56.920Z,13.90
2019-02-21T01:03:11.634Z,14.83
2019-02-21T01:05:54.015Z,13.70
2019-02-21T01:08:36.413Z,14.07
2019-02-21T01:11:18.437Z,13.23
2019-02-21T01:14:00.722Z,13.50
2019-02-21T01:16:43.236Z,13.47
2019-02-21T01:19:24.948Z,13.80
2019-02-21T01:22:07.174Z,13.97
2019-02-21T01:24:49.296Z,13.50
2019-02-21T01:27:31.189Z,14.50
2019-02-21T01:30:13.367Z,13.00
2019-02-21T01:32:55.234Z,14.53
2019-02-21T01:35:37.213Z,13.57
2019-02-21T01:38:19.615Z,14.20
2019-02-21T01:41:02.105Z,14.87
2019-02-21T01:43:44.033Z,15.07
2019-02-21T01:46:25.987Z,15.63
2019-02-21T01:49:08.297Z,15.03
2019-02-21T01:51:50.535Z,14.60
2019-02-21T01:54:32.271Z,14.47
2019-02-21T01:57:13.873Z,15.57
2019-02-21T01:59:55.950Z,15.37
2019-02-21T02:02:37.902Z,15.30
2019-02-21T02:05:20.209Z,15.50
2019-02-21T02:08:01.917Z,15.40
2019-02-21T02:10:44.266Z,15.67
2019-02-21T02:13:26.332Z,15.67
2019-02-21T02:16:09.432Z,16.77
2019-02-21T02:18:51.497Z,16.27
2019-02-21T02:21:33.521Z,16.37
2019-02-21T02:24:15.768Z,15.63
2019-02-21T02:26:57.893Z,15.90
2019-02-21T02:29:39.833Z,15.97
2019-02-21T02:32:22.934Z,16.83
2019-02-21T02:35:04.918Z,17.47
2019-02-21T02:37:47.089Z,15.67
2019-02-21T02:40:29.026Z,16.03
2019-02-21T02:43:10.996Z,15.47
2019-02-21T02:45:53.244Z,16.40
2019-02-21T02:48:35.077Z,16.40
2019-02-21T02:51:17.021Z,16.30
2019-02-21T02:53:59.302Z,15.63
2019-02-21T02:56:41.762Z,14.73
2019-02-21T02:59:24.238Z,15.10
2019-02-21T03:02:05.908Z,14.53
2019-02-21T03:08:09.347Z,14.20
2019-02-21T03:10:58.620Z,15.37
2019-02-21T03:13:47.992Z,15.10
2019-02-21T03:16:37.388Z,15.43
2019-02-21T03:19:26.956Z,15.43
2019-02-21T03:22:16.332Z,14.30
2019-02-21T03:25:05.948Z,14.37
2019-02-21T03:27:55.389Z,14.20
2019-02-21T03:30:44.925Z,13.97
2019-02-21T03:33:34.309Z,14.40
2019-02-21T03:36:23.678Z,14.00
2019-02-21T03:39:13.019Z,14.07
2019-02-21T03:42:02.407Z,14.50
2019-02-21T03:44:51.146Z,14.20
2019-02-21T03:47:40.386Z,13.87
2019-02-21T03:50:29.684Z,14.47
2019-02-21T03:53:18.949Z,15.00
2019-02-21T03:56:07.715Z,13.87
2019-02-21T03:58:56.952Z,14.10
2019-02-21T04:01:46.397Z,14.80
2019-02-21T04:04:35.733Z,14.73
2019-02-21T04:07:25.036Z,14.17
2019-02-21T04:10:07.434Z,13.57
2019-02-21T04:12:49.718Z,14.20
2019-02-21T04:15:31.871Z,13.67
2019-02-21T04:18:13.692Z,13.80
2019-02-21T04:20:55.249Z,13.63
2019-02-21T04:23:37.653Z,12.33
2019-02-21T04:26:19.957Z,13.30
2019-02-21T04:32:03.134Z,13.60
2019-02-21T04:37:44.302Z,14.07
2019-02-21T04:40:25.997Z,14.17
2019-02-21T04:43:07.664Z,13.87
2019-02-21T04:45:49.981Z,14.17
2019-02-21T04:48:32.385Z,13.47
2019-02-21T04:51:14.479Z,13.83
2019-02-21T04:53:56.303Z,13.10
2019-02-21T04:56:38.206Z,12.97
2019-02-21T04:59:19.822Z,13.07
2019-02-21T05:02:01.459Z,13.73
2019-02-21T05:04:43.036Z,13.83
2019-02-21T05:07:25.299Z,13.23
2019-02-21T05:10:07.308Z,13.27
2019-02-21T05:12:49.519Z,13.87
2019-02-21T05:15:31.568Z,14.20
2019-02-21T05:18:13.349Z,13.80
2019-02-21T05:20:55.458Z,12.90
2019-02-21T05:23:37.049Z,13.57
2019-02-21T05:26:24.238Z,13.17
2019-02-21T05:29:08.469Z,13.67
2019-02-21T05:32:12.391Z,12.67
2019-02-21T05:35:06.252Z,13.03
2019-02-21T05:38:07.781Z,13.20
2019-02-21T05:41:08.709Z,13.30
2019-02-21T05:44:12.519Z,13.30
2019-02-21T05:47:13.315Z,13.30
2019-02-21T05:50:06.465Z,13.13
2019-02-21T05:53:07.855Z,12.63
2019-02-21T05:55:58.718Z,12.80
2019-02-21T05:58:59.918Z,14.30
2019-02-21T06:02:00.544Z,13.33
2019-02-21T06:05:01.100Z,13.10
2019-02-21T06:11:03.707Z,13.87
2019-02-21T06:14:04.477Z,15.40
2019-02-21T06:17:05.255Z,13.53
2019-02-21T06:20:05.731Z,14.70
2019-02-21T06:22:55.751Z,13.70
2019-02-21T06:25:59.155Z,15.03
2019-02-21T06:28:54.178Z,15.80
2019-02-21T06:31:35.778Z,14.03
2019-02-21T06:34:18.137Z,13.23
2019-02-21T06:37:00.175Z,15.47
2019-02-21T06:39:42.345Z,16.73
2019-02-21T06:42:24.155Z,17.37
2019-02-21T06:45:05.894Z,15.87
2019-02-21T06:47:48.365Z,14.20
2019-02-21T06:50:30.411Z,14.53
2019-02-21T06:53:12.486Z,13.53
2019-02-21T06:55:54.482Z,12.77
2019-02-21T06:58:36.779Z,14.40
2019-02-21T07:01:26.730Z,14.37
2019-02-21T07:04:02.026Z,13.00
2019-02-21T07:06:44.379Z,13.20
2019-02-21T07:09:26.888Z,12.87
2019-02-21T07:12:10.644Z,13.67
2019-02-21T07:14:52.838Z,13.93
2019-02-21T07:17:34.657Z,23.10
2019-02-21T07:20:17.013Z,14.60
2019-02-21T07:22:58.865Z,13.47
2019-02-21T07:25:44.267Z,13.27
2019-02-21T07:28:27.861Z,10.60
2019-02-21T07:31:09.542Z,13.40
2019-02-21T07:33:51.383Z,12.73
2019-02-21T07:36:33.681Z,13.50
2019-02-21T07:39:19.795Z,12.57
2019-02-21T07:41:59.527Z,12.53
2019-02-21T07:44:41.653Z,13.63
2019-02-21T07:47:23.926Z,13.17
2019-02-21T07:50:04.768Z,13.87
2019-02-21T07:53:01.994Z,13.93
2019-02-21T07:56:04.586Z,13.43
2019-02-21T07:58:53.953Z,13.47
2019-02-21T08:01:43.241Z,14.00
2019-02-21T08:04:32.614Z,13.90
2019-02-21T08:07:21.995Z,13.87
2019-02-21T08:10:11.375Z,15.10
2019-02-21T08:13:00.742Z,14.73
2019-02-21T08:15:50.138Z,15.20
2019-02-21T08:18:39.498Z,14.33
2019-02-21T08:21:21.750Z,15.97
2019-02-21T08:24:03.597Z,16.53
2019-02-21T08:26:46.051Z,15.57
2019-02-21T08:29:28.384Z,15.73
2019-02-21T08:32:11.566Z,15.93
2019-02-21T08:34:54.138Z,16.23
2019-02-21T08:37:36.422Z,15.33
2019-02-21T08:40:18.687Z,16.27
2019-02-21T08:43:00.736Z,15.70
2019-02-21T08:45:42.828Z,15.63
2019-02-21T08:48:25.231Z,16.80
2019-02-21T08:51:07.829Z,14.67
2019-02-21T08:53:49.702Z,15.30
2019-02-21T08:56:31.721Z,16.53
2019-02-21T08:59:13.381Z,16.97
2019-02-21T09:01:55.348Z,15.60
2019-02-21T09:04:37.535Z,16.37
2019-02-21T09:07:19.342Z,17.13
2019-02-21T09:10:01.792Z,16.20
2019-02-21T09:12:48.037Z,16.83
2019-02-21T09:15:28.507Z,15.80
2019-02-21T09:18:10.793Z,16.20
2019-02-21T09:20:52.493Z,16.87
2019-02-21T09:23:34.681Z,16.27
2019-02-21T09:26:16.946Z,16.77
2019-02-21T09:28:58.920Z,16.97
2019-02-21T09:31:40.775Z,16.27
2019-02-21T09:34:22.835Z,16.53
2019-02-21T09:37:05.535Z,16.10
2019-02-21T09:39:47.136Z,15.30
2019-02-21T09:42:28.894Z,15.97
2019-02-21T09:45:11.286Z,15.80
2019-02-21T09:47:53.498Z,16.37
2019-02-21T09:50:35.943Z,15.60
2019-02-21T09:53:18.093Z,16.03
2019-02-21T09:56:00.265Z,16.33
2019-02-21T09:58:42.178Z,16.87
2019-02-21T10:01:23.689Z,16.17
2019-02-21T10:04:06.019Z,19.83
2019-02-21T10:06:47.718Z,19.77
2019-02-21T10:09:29.765Z,17.83
2019-02-21T10:12:12.098Z,20.20
2019-02-21T10:14:54.156Z,22.03
2019-02-21T10:17:35.844Z,19.83
2019-02-21T10:20:18.363Z,17.60
2019-02-21T10:22:48.738Z,17.97
2019-02-21T10:25:38.160Z,17.37
2019-02-21T10:28:27.655Z,16.97
2019-02-21T10:31:16.984Z,17.37
2019-02-21T10:34:06.321Z,16.23
2019-02-21T10:36:55.740Z,17.10
2019-02-21T10:39:47.705Z,15.93
2019-02-21T10:42:55.605Z,16.00
2019-02-21T10:45:47.726Z,15.90
2019-02-21T10:48:55.493Z,15.83
2019-02-21T10:51:44.909Z,14.97
2019-02-21T10:54:34.303Z,17.57
2019-02-21T10:57:23.664Z,16.70
2019-02-21T11:00:14.308Z,16.43
2019-02-21T11:03:03.734Z,16.73
2019-02-21T11:05:53.112Z,16.97
2019-02-21T11:08:42.673Z,16.50
2019-02-21T11:11:32.073Z,16.73
2019-02-21T11:14:21.613Z,15.70
2019-02-21T11:17:11.039Z,16.90
2019-02-21T11:20:00.409Z,15.67
2019-02-21T11:22:42.282Z,16.83
2019-02-21T11:25:25.043Z,17.23
2019-02-21T11:31:06.869Z,17.67
2019-02-21T11:33:48.808Z,18.13
2019-02-21T11:36:31.090Z,15.60
2019-02-21T11:39:12.945Z,16.30
2019-02-21T11:41:55.206Z,16.10
2019-02-21T11:47:57.428Z,15.93
2019-02-21T11:50:39.774Z,15.77
2019-02-21T11:53:22.205Z,16.27
2019-02-21T11:56:03.924Z,16.60
2019-02-21T11:58:46.114Z,15.27
2019-02-21T12:01:28.402Z,15.50
2019-02-21T12:04:10.226Z,14.20
2019-02-21T12:06:52.364Z,14.77
2019-02-21T12:09:34.524Z,14.67
2019-02-21T12:12:16.906Z,16.13
2019-02-21T12:14:57.361Z,15.03
2019-02-21T12:17:46.719Z,14.63
2019-02-21T12:20:28.832Z,12.27
2019-02-21T12:23:10.662Z,13.90
2019-02-21T12:25:52.562Z,13.10
2019-02-21T12:28:34.550Z,13.63
2019-02-21T12:31:16.684Z,13.90
2019-02-21T12:33:58.773Z,13.23
2019-02-21T12:36:41.334Z,13.40
2019-02-21T12:39:23.126Z,11.97
2019-02-21T12:42:04.804Z,12.77
2019-02-21T12:44:47.893Z,12.57
2019-02-21T12:47:29.946Z,12.23
2019-02-21T12:50:12.447Z,12.50
2019-02-21T12:52:54.706Z,11.37
2019-02-21T12:55:36.441Z,12.47
2019-02-21T12:58:18.925Z,12.70
2019-02-21T13:01:00.723Z,14.17
2019-02-21T13:03:42.994Z,14.40
2019-02-21T13:06:24.813Z,13.97
2019-02-21T13:09:06.389Z,13.53
2019-02-21T13:11:48.600Z,15.27
2019-02-21T13:14:30.251Z,13.67
2019-02-21T13:17:12.454Z,13.13
2019-02-21T13:19:54.417Z,12.83
2019-02-21T13:22:36.486Z,12.83
2019-02-21T13:25:18.578Z,13.97
2019-02-21T13:28:00.735Z,13.07
2019-02-21T13:30:42.477Z,13.90
2019-02-21T13:33:24.774Z,15.20
2019-02-21T13:36:07.062Z,14.50
2019-02-21T13:38:49.187Z,14.60
2019-02-21T13:41:19.604Z,15.73
2019-02-21T13:44:09.002Z,15.83
2019-02-21T13:46:58.611Z,16.80
2019-02-21T13:49:47.925Z,15.37
2019-02-21T13:52:37.296Z,18.33
2019-02-21T13:55:26.604Z,15.10
2019-02-21T13:58:15.984Z,15.70
2019-02-21T14:01:05.345Z,13.80
2019-02-21T14:03:56.592Z,16.27
2019-02-21T14:07:05.315Z,17.17
2019-02-21T14:09:54.653Z,14.67
2019-02-21T14:12:36.900Z,13.53
2019-02-21T14:15:19.093Z,14.30
2019-02-21T14:18:01.213Z,13.67
2019-02-21T14:20:45.650Z,13.10
2019-02-21T14:23:28.071Z,13.97
2019-02-21T14:26:10.372Z,13.87
2019-02-21T14:28:52.226Z,11.93
2019-02-21T14:31:33.781Z,13.47
2019-02-21T14:34:15.857Z,12.13
2019-02-21T14:36:57.852Z,11.63
2019-02-21T14:39:39.993Z,12.20
2019-02-21T14:42:22.189Z,12.97
2019-02-21T14:45:04.588Z,12.67
2019-02-21T14:47:46.287Z,12.20
2019-02-21T14:50:28.414Z,11.30
2019-02-21T14:53:10.696Z,12.37
2019-02-21T14:55:52.977Z,11.97
2019-02-21T14:58:35.293Z,11.40
2019-02-21T15:01:17.573Z,11.93
2019-02-21T15:03:59.514Z,11.23
2019-02-21T15:06:42.005Z,11.43
2019-02-21T15:09:24.028Z,11.60
2019-02-21T15:12:06.413Z,10.23
2019-02-21T15:14:48.126Z,10.23
2019-02-21T15:17:30.577Z,10.27
2019-02-21T15:20:12.853Z,10.07
2019-02-21T15:22:55.056Z,10.00
2019-02-21T15:25:36.796Z,9.80
2019-02-21T15:28:18.901Z,10.07
2019-02-21T15:31:01.273Z,10.77
2019-02-21T15:33:43.698Z,10.33
2019-02-21T15:39:24.258Z,10.13
2019-02-21T15:42:06.103Z,10.90
2019-02-21T15:44:48.038Z,12.23
2019-02-21T15:47:30.201Z,13.10
2019-02-21T15:50:11.950Z,14.93
2019-02-21T15:52:54.317Z,14.37
2019-02-21T15:55:36.800Z,14.50
2019-02-21T15:58:18.872Z,14.83
2019-02-21T16:01:00.612Z,14.10
2019-02-21T16:03:43.013Z,15.17
2019-02-21T16:06:24.890Z,15.07
2019-02-21T16:12:07.237Z,12.93
2019-02-21T16:14:49.979Z,15.07
2019-02-21T16:17:37.203Z,12.93
2019-02-21T16:20:16.272Z,12.50
2019-02-21T16:22:58.756Z,11.83
2019-02-21T16:25:41.142Z,12.00
2019-02-21T16:28:22.953Z,11.33
2019-02-21T16:31:04.981Z,11.10
2019-02-21T16:33:47.326Z,11.33
2019-02-21T16:36:29.300Z,11.10
2019-02-21T16:39:11.430Z,11.30
2019-02-21T16:41:53.887Z,11.30
2019-02-21T16:44:35.837Z,10.80
2019-02-21T16:47:17.414Z,10.87
2019-02-21T16:49:59.827Z,11.03
2019-02-21T16:52:41.798Z,11.33
2019-02-21T16:55:24.062Z,10.90
2019-02-21T16:58:05.943Z,11.33
2019-02-21T17:00:54.657Z,11.43
2019-02-21T17:03:31.782Z,11.27
2019-02-21T17:06:13.979Z,11.30
2019-02-21T17:08:55.742Z,11.43
2019-02-21T17:11:38.026Z,12.10
2019-02-21T17:14:20.393Z,12.40
2019-02-21T17:17:02.295Z,11.23
2019-02-21T17:19:44.064Z,11.77
2019-02-21T17:22:26.103Z,12.60
2019-02-21T17:25:08.375Z,13.10
2019-02-21T17:27:50.206Z,12.87
2019-02-21T17:30:31.928Z,12.90
2019-02-21T17:33:13.892Z,13.77
2019-02-21T17:35:56.068Z,12.63
2019-02-21T17:38:38.256Z,12.90
2019-02-21T17:41:20.024Z,14.37
2019-02-21T17:44:01.963Z,13.43
2019-02-21T17:46:32.318Z,13.87
2019-02-21T17:49:21.753Z,12.87
2019-02-21T17:52:11.051Z,13.20
2019-02-21T17:55:00.363Z,13.73
2019-02-21T17:57:49.779Z,16.30
2019-02-21T18:03:55.168Z,14.37
2019-02-21T18:06:44.553Z,14.97
2019-02-21T18:09:35.565Z,14.90
2019-02-21T18:12:17.839Z,15.70
2019-02-21T18:15:00.218Z,14.87
2019-02-21T18:17:42.137Z,17.07
2019-02-21T18:20:24.264Z,16.37
2019-02-21T18:23:06.391Z,17.17
2019-02-21T18:25:48.667Z,15.30
2019-02-21T18:28:30.470Z,16.20
2019-02-21T18:31:12.861Z,33.73
2019-02-21T18:33:54.807Z,15.90
2019-02-21T18:36:37.033Z,16.57
2019-02-21T18:39:19.429Z,18.03
2019-02-21T18:41:59.865Z,17.67
2019-02-21T18:44:49.256Z,17.60
2019-02-21T18:47:38.606Z,17.30
2019-02-21T18:50:37.821Z,17.77
2019-02-21T18:53:38.580Z,19.57
2019-02-21T18:56:28.116Z,18.87
2019-02-21T18:59:17.546Z,18.10
2019-02-21T19:02:06.506Z,18.50
2019-02-21T19:04:55.790Z,17.87
2019-02-21T19:07:45.402Z,17.77
2019-02-21T19:10:34.902Z,17.93
2019-02-21T19:13:17.000Z,17.03
2019-02-21T19:15:58.851Z,16.23
2019-02-21T19:18:40.619Z,15.17
2019-02-21T19:21:21.133Z,15.13
2019-02-21T19:24:10.614Z,15.47
2019-02-21T19:27:00.083Z,13.70
2019-02-21T19:29:49.748Z,12.37
2019-02-21T19:32:39.093Z,11.00
2019-02-21T19:35:28.497Z,10.23
2019-02-21T19:38:17.884Z,10.37
2019-02-21T19:41:07.312Z,10.20
2019-02-21T19:43:56.623Z,8.20
2019-02-21T19:47:05.427Z,8.80
2019-02-21T19:49:54.788Z,9.10
2019-02-21T19:52:44.187Z,8.50
2019-02-21T19:55:33.589Z,8.93
2019-02-21T19:58:24.828Z,8.77
2019-02-21T20:01:33.478Z,8.40
2019-02-21T20:04:22.862Z,8.40
2019-02-21T20:07:12.269Z,8.60
2019-02-21T20:10:01.655Z,9.00
2019-02-21T20:12:43.377Z,8.67
2019-02-21T20:15:25.230Z,9.10
2019-02-21T20:18:07.315Z,8.63
2019-02-21T20:20:49.117Z,8.83
2019-02-21T20:23:30.780Z,8.47
2019-02-21T20:26:18.488Z,9.20
2019-02-21T20:28:56.410Z,9.57
2019-02-21T20:31:38.148Z,8.93
2019-02-21T20:34:20.053Z,8.77
2019-02-21T20:37:01.934Z,9.23
2019-02-21T20:39:44.359Z,9.40
2019-02-21T20:45:26.985Z,8.77
2019-02-21T20:48:09.102Z,8.53
2019-02-21T20:50:57.050Z,9.10
2019-02-21T20:53:34.492Z,9.00
2019-02-21T20:56:16.770Z,9.17
2019-02-21T20:58:59.525Z,9.13
2019-02-21T21:01:41.566Z,8.77
2019-02-21T21:04:23.338Z,8.27
2019-02-21T21:07:05.243Z,8.27
2019-02-21T21:09:46.905Z,8.47
2019-02-21T21:12:29.170Z,9.07
2019-02-21T21:15:10.908Z,8.60
2019-02-21T21:17:53.072Z,8.33
2019-02-21T21:20:35.338Z,8.73
2019-02-21T21:23:17.506Z,9.33
2019-02-21T21:25:59.662Z,9.80
2019-02-21T21:28:41.602Z,9.30
2019-02-21T21:31:23.834Z,8.27
2019-02-21T21:34:06.342Z,8.40
2019-02-21T21:36:48.462Z,8.30
2019-02-21T21:39:33.305Z,9.80
2019-02-21T21:42:14.906Z,8.53
2019-02-21T21:44:56.993Z,9.03
2019-02-21T21:47:39.253Z,9.73
2019-02-21T21:50:21.502Z,8.47
2019-02-21T21:53:03.208Z,8.97
2019-02-21T21:55:45.206Z,9.27
2019-02-21T21:58:27.196Z,9.17
2019-02-21T22:01:09.164Z,9.07
2019-02-21T22:03:51.091Z,9.97
2019-02-21T22:06:33.005Z,9.43
2019-02-21T22:09:15.069Z,9.97
2019-02-21T22:11:57.065Z,9.20
2019-02-21T22:14:39.004Z,9.93
2019-02-21T22:17:21.184Z,10.20
2019-02-21T22:20:02.975Z,9.70
2019-02-21T22:22:44.697Z,10.37
2019-02-21T22:25:25.102Z,10.77
2019-02-21T22:28:14.012Z,10.73
2019-02-21T22:31:03.795Z,10.60
2019-02-21T22:33:53.190Z,11.07
2019-02-21T22:36:42.594Z,11.97
2019-02-21T22:39:32.021Z,11.80
2019-02-21T22:42:21.484Z,11.70
2019-02-21T22:45:11.025Z,11.07
2019-02-21T22:48:00.506Z,12.80
2019-02-21T22:50:49.305Z,12.60
2019-02-21T22:53:38.576Z,12.17
2019-02-21T22:56:27.899Z,12.57
2019-02-21T22:59:17.263Z,12.50
2019-02-21T23:02:06.677Z,12.60
2019-02-21T23:05:15.153Z,12.23
2019-02-21T23:08:11.717Z,13.27
2019-02-21T23:11:01.154Z,13.80
2019-02-21T23:13:43.482Z,13.53
2019-02-21T23:16:25.910Z,14.27
2019-02-21T23:19:08.154Z,14.23
2019-02-21T23:21:49.768Z,14.63
2019-02-21T23:24:31.834Z,14.80
2019-02-21T23:27:15.008Z,14.77
2019-02-21T23:29:58.905Z,14.43
2019-02-21T23:32:42.121Z,14.90
2019-02-21T23:35:25.557Z,15.27
2019-02-21T23:38:09.644Z,14.70
2019-02-21T23:40:53.543Z,15.73
2019-02-21T23:43:36.817Z,16.07
2019-02-21T23:46:20.773Z,15.47
2019-02-21T23:49:04.744Z,15.90
2019-02-21T23:51:48.760Z,15.30
2019-02-21T23:54:31.982Z,15.67
2019-02-21T23:57:15.959Z,16.60
2019-02-21T23:59:59.769Z,16.30
